Time;durP1;ratioP1;P1;durP2;ratioP2;P2;SDS_P1;SDS_P2;PMS_P1;PMS_P2;Temp;Humidity;BMP_temperature;BMP_pressure;BME280_temperature;BME280_humidity;BME280_pressure;Samples;Min_cycle;Max_cycle;Signal;HPM_P1;HPM_P2
2021/09/15 00:00:26;;;;;;;5.90;2.50;;;;;;;15.25;37.62;98464.56;5071839;28;20080;-78
2021/09/15 00:02:52;;;;;;;5.75;3.00;;;;;;;15.25;37.86;98448.41;5072999;28;20566;-78
2021/09/15 00:05:18;;;;;;;9.18;2.20;;;;;;;15.27;37.86;98451.78;5054819;28;20089;-78
2021/09/15 00:07:44;;;;;;;10.18;2.20;;;;;;;15.25;37.90;98453.81;5055215;28;20040;-76
2021/09/15 00:10:10;;;;;;;2.92;1.80;;;;;;;15.22;37.84;98451.44;5005493;28;20151;-77
2021/09/15 00:12:36;;;;;;;4.95;2.10;;;;;;;15.28;37.88;98458.84;5071696;28;20048;-78
2021/09/15 00:15:02;;;;;;;3.63;1.83;;;;;;;15.30;38.11;98456.81;5038683;28;20135;-77
2021/09/15 00:17:28;;;;;;;7.97;2.53;;;;;;;15.28;38.03;98444.56;5071617;28;20036;-78
2021/09/15 00:19:54;;;;;;;6.57;2.40;;;;;;;15.34;38.23;98451.06;5054526;28;20628;-78
2021/09/15 00:22:19;;;;;;;7.75;1.80;;;;;;;15.36;37.82;98444.50;5071525;28;20058;-79
2021/09/15 00:24:45;;;;;;;5.57;2.00;;;;;;;15.26;38.14;98442.00;5072759;28;20076;-78
2021/09/15 00:27:11;;;;;;;5.30;2.33;;;;;;;15.21;38.19;98436.31;5071614;28;20051;-77
2021/09/15 00:29:38;;;;;;;8.02;1.83;;;;;;;15.19;38.34;98435.66;5054849;28;20139;-78
2021/09/15 00:32:05;;;;;;;7.00;1.95;;;;;;;15.09;38.39;98437.72;5038236;28;20131;-78
2021/09/15 00:34:31;;;;;;;4.00;1.83;;;;;;;15.12;38.28;98436.50;5054553;28;20127;-77
2021/09/15 00:36:57;;;;;;;2.35;1.70;;;;;;;15.24;38.03;98460.22;5054960;28;20517;-78
2021/09/15 00:39:23;;;;;;;7.00;1.83;;;;;;;15.23;38.30;98450.47;5054815;28;20514;-78
2021/09/15 00:41:49;;;;;;;2.47;1.67;;;;;;;15.28;38.27;98452.63;5071557;28;20085;-77
2021/09/15 00:44:15;;;;;;;4.68;2.17;;;;;;;15.30;38.09;98447.88;5054295;28;20067;-79
2021/09/15 00:46:42;;;;;;;6.57;1.90;;;;;;;15.30;38.18;98451.41;5038183;28;20045;-79
2021/09/15 00:49:08;;;;;;;4.15;1.73;;;;;;;15.28;38.43;98450.78;5054738;28;20127;-77
2021/09/15 00:51:37;;;;;;;3.05;1.80;;;;;;;15.32;38.59;98453.13;5038027;28;20051;-78
2021/09/15 00:54:06;;;;;;;5.57;1.83;;;;;;;15.37;38.44;98461.50;5038399;28;20067;-80
2021/09/15 00:56:36;;;;;;;6.65;2.20;;;;;;;15.40;38.03;98455.78;5055823;28;20062;-77
2021/09/15 00:59:04;;;;;;;4.45;2.10;;;;;;;15.43;38.47;98463.50;5038352;28;20109;-77
2021/09/15 01:01:31;;;;;;;4.38;2.00;;;;;;;15.45;38.47;98453.38;5087886;28;20515;-79
2021/09/15 01:04:02;;;;;;;6.65;1.80;;;;;;;15.47;38.39;98451.38;5054797;28;20102;-77
2021/09/15 01:06:30;;;;;;;7.57;2.28;;;;;;;15.46;38.54;98455.09;5038594;28;20049;-77
2021/09/15 01:08:59;;;;;;;4.73;2.00;;;;;;;15.44;38.55;98451.72;5054756;28;20504;-77
2021/09/15 01:11:27;;;;;;;6.03;2.03;;;;;;;15.36;38.71;98438.28;5054733;28;20315;-77
2021/09/15 01:14:03;;;;;;;7.03;2.35;;;;;;;15.40;38.70;98450.38;5071078;28;20094;-76
2021/09/15 01:16:58;;;;;;;12.10;2.30;;;;;;;15.23;38.81;98430.75;5044499;28;20055;-77
2021/09/15 01:19:42;;;;;;;7.20;2.20;;;;;;;15.26;38.73;98433.94;5059204;28;20098;-78
2021/09/15 01:22:35;;;;;;;7.88;2.40;;;;;;;15.30;39.04;98435.25;5050667;28;20074;-79
2021/09/15 01:25:29;;;;;;;6.80;2.40;;;;;;;15.25;38.99;98432.28;5072325;28;20116;-76
2021/09/15 01:28:13;;;;;;;8.98;2.65;;;;;;;15.18;39.16;98422.38;5071314;28;20044;-78
2021/09/15 01:30:43;;;;;;;13.52;2.97;;;;;;;15.09;39.64;98405.44;5056150;28;20109;-78
2021/09/15 01:33:12;;;;;;;9.20;3.22;;;;;;;15.08;39.91;98411.81;5042111;28;20044;-76
2021/09/15 01:35:38;;;;;;;7.22;3.30;;;;;;;14.95;40.32;98403.44;5057971;28;20458;-76
2021/09/15 01:38:04;;;;;;;5.25;2.50;;;;;;;15.00;40.25;98417.22;5074515;28;20043;-75
2021/09/15 01:40:30;;;;;;;7.90;2.80;;;;;;;14.97;40.30;98417.56;5057975;28;20507;-76
2021/09/15 01:42:57;;;;;;;5.70;2.28;;;;;;;14.87;40.30;98404.31;5057139;28;20230;-78
2021/09/15 01:45:23;;;;;;;6.10;2.75;;;;;;;14.85;40.79;98410.88;5021306;28;20132;-77
2021/09/15 01:47:48;;;;;;;7.45;2.75;;;;;;;14.73;41.16;98405.88;5055783;28;20550;-77
2021/09/15 01:50:15;;;;;;;9.23;2.90;;;;;;;14.66;41.00;98420.16;5021895;28;20067;-77
2021/09/15 01:52:41;;;;;;;10.02;3.13;;;;;;;14.67;41.07;98422.72;5038087;28;20583;-79
2021/09/15 01:55:24;;;;;;;9.00;2.80;;;;;;;14.67;41.05;98419.16;5037791;28;20045;-78
2021/09/15 01:57:55;;;;;;;10.52;2.80;;;;;;;14.64;40.80;98412.28;5037832;28;20075;-78
2021/09/15 02:00:40;;;;;;;11.25;2.72;;;;;;;14.64;41.09;98406.91;5055601;28;20083;-79
2021/09/15 02:03:26;;;;;;;6.00;2.60;;;;;;;14.60;41.17;98404.75;5009895;28;20131;-77
2021/09/15 02:06:08;;;;;;;13.68;2.85;;;;;;;14.64;41.09;98401.53;5009333;28;20083;-78
2021/09/15 02:08:38;;;;;;;20.02;2.90;;;;;;;14.70;41.05;98395.44;5007274;28;20107;-78
2021/09/15 02:11:17;;;;;;;6.38;2.72;;;;;;;14.74;41.00;98390.56;5006397;28;20051;-78
2021/09/15 02:13:43;;;;;;;10.65;2.90;;;;;;;14.80;41.18;98397.94;5004384;28;20045;-79
2021/09/15 02:16:09;;;;;;;11.80;2.95;;;;;;;14.87;41.02;98392.72;5021035;28;20068;-78
2021/09/15 02:18:35;;;;;;;6.15;2.85;;;;;;;14.90;41.06;98389.69;5004746;28;20485;-78
2021/09/15 02:21:30;;;;;;;6.35;2.80;;;;;;;14.98;40.83;98392.34;4983972;28;20058;-77
2021/09/15 02:24:16;;;;;;;4.00;2.90;;;;;;;15.07;41.16;98385.91;5040253;28;20041;-80
2021/09/15 02:26:57;;;;;;;5.40;2.63;;;;;;;15.19;40.58;98378.28;5039888;28;20060;-79
2021/09/15 02:29:24;;;;;;;13.00;2.72;;;;;;;15.21;40.96;98379.78;5041223;28;20052;-83
2021/09/15 02:32:08;;;;;;;12.07;2.85;;;;;;;15.34;40.06;98398.06;5044173;28;20097;-78
2021/09/15 02:34:48;;;;;;;10.88;3.28;;;;;;;15.42;40.44;98394.47;5013281;28;20097;-81
2021/09/15 02:37:32;;;;;;;5.35;2.63;;;;;;;15.23;40.49;98393.94;4988723;28;20055;-80
2021/09/15 02:40:09;;;;;;;8.85;3.28;;;;;;;15.29;40.71;98395.91;5048707;28;20048;-78
2021/09/15 02:43:00;;;;;;;8.10;3.28;;;;;;;15.35;40.51;98393.53;4992839;28;20036;-79
2021/09/15 02:45:37;;;;;;;7.82;3.08;;;;;;;15.38;40.10;98388.59;5002437;28;20045;-77
2021/09/15 02:48:13;;;;;;;11.00;3.38;;;;;;;15.44;40.23;98382.53;5023571;28;20052;-78
2021/09/15 02:50:54;;;;;;;17.90;3.70;;;;;;;15.57;40.07;98378.41;5026680;28;20492;-80
2021/09/15 02:53:44;;;;;;;12.23;4.13;;;;;;;15.59;40.07;98369.13;5026385;28;20492;-77
2021/09/15 02:56:28;;;;;;;16.10;3.95;;;;;;;15.75;39.94;98374.44;5009158;28;20055;-76
2021/09/15 02:59:09;;;;;;;9.43;3.30;;;;;;;15.85;40.03;98384.16;4992777;28;20570;-79
2021/09/15 03:01:55;;;;;;;12.65;3.58;;;;;;;15.85;39.83;98373.38;4995318;28;20049;-78
2021/09/15 03:04:32;;;;;;;11.50;3.00;;;;;;;15.94;39.87;98372.28;5005057;28;20064;-77
2021/09/15 03:07:05;;;;;;;11.98;3.60;;;;;;;16.09;39.50;98370.47;4973608;28;20057;-79
2021/09/15 03:09:34;;;;;;;;;;;;;;;16.09;39.66;98378.56;5004524;28;20067;-78
2021/09/15 03:12:00;;;;;;;15.30;3.05;;;;;;;16.04;39.34;98362.09;5003449;28;20372;-80
2021/09/15 03:14:26;;;;;;;8.48;3.15;;;;;;;16.05;39.49;98366.47;5035442;28;20045;-77
2021/09/15 03:16:54;;;;;;;6.22;2.45;;;;;;;16.01;39.78;98351.66;5019385;28;20114;-79
2021/09/15 03:19:21;;;;;;;13.43;3.65;;;;;;;16.07;39.53;98350.13;4987646;28;20561;-79
2021/09/15 03:21:48;;;;;;;13.57;3.47;;;;;;;16.06;39.39;98346.59;4971004;28;20484;-79
2021/09/15 03:24:15;;;;;;;11.82;3.45;;;;;;;16.03;39.53;98349.66;4986567;28;20135;-79
2021/09/15 03:26:48;;;;;;;16.33;2.95;;;;;;;16.00;39.64;98350.00;5005094;28;20055;-78
2021/09/15 03:29:14;;;;;;;17.25;3.45;;;;;;;15.99;39.51;98357.25;4985966;28;20045;-78
2021/09/15 03:31:40;;;;;;;4.93;3.08;;;;;;;16.04;39.20;98348.63;4986190;28;20095;-78
2021/09/15 03:34:06;;;;;;;7.53;3.10;;;;;;;16.08;39.42;98349.94;5002705;28;20044;-78
2021/09/15 03:36:32;;;;;;;19.50;3.25;;;;;;;16.09;39.15;98342.66;5018853;28;20068;-78
2021/09/15 03:38:59;;;;;;;5.82;2.60;;;;;;;16.21;39.00;98374.44;5018850;28;20562;-80
2021/09/15 03:41:26;;;;;;;15.68;3.35;;;;;;;16.22;38.96;98396.84;4986613;28;20055;-79
2021/09/15 03:43:52;;;;;;;13.95;3.45;;;;;;;15.99;39.27;98424.66;5014644;28;20056;-79
2021/09/15 03:46:19;;;;;;;10.48;3.05;;;;;;;15.87;39.73;98392.88;5039002;28;20068;-80
2021/09/15 03:48:45;;;;;;;12.85;2.97;;;;;;;16.17;39.62;98427.03;5055435;28;20106;-79
2021/09/15 03:51:11;;;;;;;9.40;3.55;;;;;;;16.15;39.94;98420.97;5038553;28;20143;-77
2021/09/15 03:53:37;;;;;;;12.70;3.53;;;;;;;16.37;39.54;98405.78;5090405;28;20055;-79
2021/09/15 03:56:03;;;;;;;16.50;3.50;;;;;;;16.72;38.98;98398.03;5041128;28;20083;-82
2021/09/15 03:58:29;;;;;;;23.63;4.10;;;;;;;16.99;38.63;98401.97;5055726;28;20040;-80
2021/09/15 04:00:55;;;;;;;11.20;2.95;;;;;;;17.18;38.07;98392.47;5055379;28;20139;-84
2021/09/15 04:03:21;;;;;;;10.32;2.78;;;;;;;17.34;37.29;98376.06;5038128;28;20541;-79
2021/09/15 04:05:48;;;;;;;17.05;3.17;;;;;;;17.55;37.08;98367.13;5055334;28;20070;-80
2021/09/15 04:08:16;;;;;;;4.07;2.00;;;;;;;17.68;35.67;98361.06;5023181;28;20129;-78
2021/09/15 04:10:43;;;;;;;6.82;2.03;;;;;;;17.67;35.47;98349.38;5055466;28;20083;-80
2021/09/15 04:13:10;;;;;;;9.18;3.22;;;;;;;17.93;35.13;98372.34;5015626;28;20041;-84
2021/09/15 04:15:36;;;;;;;8.63;2.83;;;;;;;17.87;34.96;98362.31;5038020;28;20048;-83
2021/09/15 04:18:03;;;;;;;5.97;2.22;;;;;;;18.01;35.08;98355.97;5052101;28;20428;-81
2021/09/15 04:20:29;;;;;;;5.53;2.58;;;;;;;18.16;35.10;98348.63;5018476;28;20051;-80
2021/09/15 04:22:55;;;;;;;5.65;2.58;;;;;;;18.12;35.21;98352.75;5018209;28;20090;-79
2021/09/15 04:33:36;;;;;;;5.38;2.50;;;;;;;18.34;34.68;98336.47;5037410;28;20049;-80
2021/09/15 04:36:03;;;;;;;10.80;2.90;;;;;;;18.30;34.93;98327.91;5017657;28;20053;-79
2021/09/15 04:38:29;;;;;;;12.82;3.67;;;;;;;18.45;34.57;98327.81;5051137;28;20049;-78
2021/09/15 04:40:57;;;;;;;15.35;2.80;;;;;;;18.53;34.62;98330.38;5018917;28;20072;-78
2021/09/15 04:43:23;;;;;;;15.60;3.55;;;;;;;18.46;34.38;98313.25;5033608;28;20064;-79
2021/09/15 04:45:49;;;;;;;5.55;2.15;;;;;;;18.58;34.18;98325.22;5002083;28;20075;-79
2021/09/15 04:48:18;;;;;;;5.30;2.33;;;;;;;18.41;34.22;98319.25;5018560;28;20412;-79
2021/09/15 04:50:44;;;;;;;8.95;2.60;;;;;;;18.49;34.10;98323.69;5034619;28;20287;-82
2021/09/15 04:53:10;;;;;;;11.75;3.28;;;;;;;18.62;34.34;98306.72;5035115;28;20045;-78
2021/09/15 04:55:37;;;;;;;9.60;2.40;;;;;;;18.85;34.22;98309.16;5034735;28;20056;-78
2021/09/15 04:58:04;;;;;;;6.20;2.45;;;;;;;18.82;33.82;98309.53;5001376;28;20068;-83
2021/09/15 05:00:31;;;;;;;10.30;2.95;;;;;;;18.77;33.94;98290.34;5034945;28;20052;-79
2021/09/15 05:03:01;;;;;;;6.15;2.40;;;;;;;18.93;33.79;98296.25;5035329;28;20037;-78
2021/09/15 05:05:35;;;;;;;7.80;2.97;;;;;;;19.11;33.32;98308.44;5052282;28;20051;-79
2021/09/15 05:08:01;;;;;;;6.15;3.05;;;;;;;19.15;32.93;98305.09;5021820;28;20041;-79
2021/09/15 05:10:27;;;;;;;4.75;2.38;;;;;;;19.08;33.11;98303.41;5016196;28;20465;-79
2021/09/15 05:12:55;;;;;;;9.05;2.53;;;;;;;18.96;33.12;98295.03;5038085;28;20080;-78
2021/09/15 05:15:21;;;;;;;4.03;2.60;;;;;;;19.12;33.15;98310.94;5038274;28;20523;-79
2021/09/15 05:17:48;;;;;;;6.30;2.53;;;;;;;19.17;33.28;98305.72;5021625;28;20056;-79
2021/09/15 05:20:18;;;;;;;9.00;2.20;;;;;;;19.15;33.13;98296.97;5005913;28;20048;-78
2021/09/15 05:22:50;;;;;;;11.73;3.00;;;;;;;19.18;33.22;98298.44;5038693;28;20037;-78
2021/09/15 05:25:16;;;;;;;6.40;3.08;;;;;;;19.02;33.48;98299.63;5022923;28;20037;-79
2021/09/15 05:27:42;;;;;;;10.02;2.70;;;;;;;18.91;33.78;98302.91;5040039;28;20048;-78
2021/09/15 05:30:09;;;;;;;11.85;2.45;;;;;;;18.78;33.77;98292.88;5041585;28;20045;-76
2021/09/15 05:32:37;;;;;;;9.52;2.92;;;;;;;18.91;33.91;98302.91;5024346;28;20045;-78
2021/09/15 05:35:04;;;;;;;15.63;2.88;;;;;;;18.96;34.43;98314.00;5040290;28;20059;-79
2021/09/15 05:37:30;;;;;;;8.45;3.50;;;;;;;18.86;34.19;98289.16;5041988;28;20091;-79
2021/09/15 05:39:57;;;;;;;10.73;4.20;;;;;;;18.75;34.51;98298.66;5038695;28;20044;-77
2021/09/15 05:42:22;;;;;;;14.45;3.72;;;;;;;18.84;34.50;98270.41;5054023;28;20056;-77
2021/09/15 05:44:48;;;;;;;11.68;3.65;;;;;;;18.81;34.59;98269.97;5005737;28;20569;-77
2021/09/15 05:47:15;;;;;;;17.42;4.60;;;;;;;18.80;34.30;98282.66;4988872;28;20041;-78
2021/09/15 05:49:41;;;;;;;9.90;3.83;;;;;;;18.87;34.06;98269.16;5037759;28;20132;-77
2021/09/15 05:52:07;;;;;;;33.33;4.40;;;;;;;18.96;34.41;98294.22;5037756;28;20116;-76
2021/09/15 05:54:33;;;;;;;11.70;3.45;;;;;;;18.95;33.69;98282.50;5021230;28;20144;-77
2021/09/15 05:56:59;;;;;;;10.30;3.40;;;;;;;18.77;33.98;98261.41;5020458;28;20400;-77
2021/09/15 05:59:25;;;;;;;22.63;3.60;;;;;;;19.03;34.03;98255.28;5024542;28;20051;-79
2021/09/15 06:01:51;;;;;;;14.48;5.05;;;;;;;19.23;33.69;98268.88;5008879;28;20040;-76
2021/09/15 06:04:18;;;;;;;14.38;7.32;;;;;;;19.41;33.82;98265.59;5021626;28;20041;-77
2021/09/15 06:06:59;;;;;;;15.70;7.95;;;;;;;19.29;34.02;98262.59;5039441;28;20041;-78
2021/09/15 06:09:26;;;;;;;21.25;9.70;;;;;;;19.31;34.07;98265.97;5020848;28;20080;-78
2021/09/15 06:11:52;;;;;;;20.40;10.23;;;;;;;19.38;34.01;98271.41;5005312;28;20052;-78
2021/09/15 06:14:18;;;;;;;23.83;10.88;;;;;;;19.16;34.81;98265.31;5022185;28;20072;-78
2021/09/15 06:16:45;;;;;;;25.10;11.30;;;;;;;19.15;34.44;98256.34;5021412;28;20064;-77
2021/09/15 06:19:11;;;;;;;25.63;10.25;;;;;;;19.11;34.28;98265.09;5054415;28;20091;-77
2021/09/15 06:21:53;;;;;;;27.80;10.07;;;;;;;19.10;34.07;98264.22;5039898;28;20075;-78
2021/09/15 06:24:42;;;;;;;;;;;;;;;19.07;34.64;98259.25;5043942;28;20053;-78
2021/09/15 06:27:08;;;;;;;25.88;8.43;;;;;;;19.07;34.23;98248.41;5037862;28;20445;-77
2021/09/15 06:29:35;;;;;;;17.77;7.68;;;;;;;19.10;34.37;98234.44;5037750;28;20051;-77
2021/09/15 06:32:01;;;;;;;17.33;6.75;;;;;;;19.06;34.76;98249.44;5006083;28;20045;-77
2021/09/15 06:34:28;;;;;;;13.82;6.13;;;;;;;19.24;34.28;98258.84;5027710;28;20093;-77
2021/09/15 06:36:54;;;;;;;14.02;6.60;;;;;;;19.37;34.44;98259.72;4997598;28;20040;-76
2021/09/15 06:39:20;;;;;;;21.85;6.35;;;;;;;19.52;34.25;98256.84;5054696;28;20049;-77
2021/09/15 06:41:46;;;;;;;18.90;6.13;;;;;;;19.61;33.55;98271.84;5054408;28;20048;-76
2021/09/15 06:44:12;;;;;;;12.57;3.15;;;;;;;19.41;33.82;98265.59;5052642;28;20191;-77
2021/09/15 06:46:37;;;;;;;13.60;2.88;;;;;;;19.35;33.12;98260.97;5037048;28;20051;-77
2021/09/15 06:49:03;;;;;;;3.05;2.08;;;;;;;19.25;33.67;98250.50;5070073;28;20127;-77
2021/09/15 06:51:29;;;;;;;8.60;2.58;;;;;;;19.32;33.42;98256.78;5053457;28;20136;-77
2021/09/15 06:53:57;;;;;;;15.65;2.55;;;;;;;19.28;34.03;98241.97;5054393;28;20049;-77
2021/09/15 06:56:23;;;;;;;5.60;3.00;;;;;;;19.18;33.73;98211.72;5017970;28;20059;-77
2021/09/15 06:58:50;;;;;;;16.30;2.20;;;;;;;19.39;34.04;98202.63;5050906;28;20050;-77
2021/09/15 07:01:16;;;;;;;8.05;2.45;;;;;;;19.49;34.01;98232.84;5018188;28;20059;-78
2021/09/15 07:03:42;;;;;;;18.48;3.97;;;;;;;19.55;33.77;98213.03;5051006;28;20132;-77
2021/09/15 07:06:08;;;;;;;7.82;4.30;;;;;;;19.54;34.54;98214.09;5035603;28;20538;-78
2021/09/15 07:08:34;;;;;;;7.00;2.70;;;;;;;19.38;35.09;98220.75;5052068;28;20122;-77
2021/09/15 07:11:04;;;;;;;8.20;2.55;;;;;;;19.45;35.13;98222.66;5052590;28;20048;-78
2021/09/15 07:13:33;;;;;;;4.50;2.80;;;;;;;19.46;35.84;98218.88;5021003;28;20044;-77
2021/09/15 07:15:59;;;;;;;5.53;2.67;;;;;;;19.71;35.66;98216.41;5053725;28;20074;-77
2021/09/15 07:18:28;;;;;;;7.18;2.90;;;;;;;19.90;35.54;98221.00;5036090;28;20056;-77
2021/09/15 07:20:55;;;;;;;7.00;2.85;;;;;;;20.21;35.46;98211.38;5036634;28;20174;-77
2021/09/15 07:23:21;;;;;;;6.45;2.60;;;;;;;20.16;36.58;98219.28;5036395;28;20072;-77
2021/09/15 07:25:47;;;;;;;10.20;2.50;;;;;;;20.26;36.69;98209.66;5035789;28;20048;-77
2021/09/15 07:28:12;;;;;;;5.13;2.40;;;;;;;20.34;36.60;98216.75;5052068;28;20126;-77
2021/09/15 07:30:38;;;;;;;8.90;3.25;;;;;;;20.32;36.75;98208.00;5052530;28;20048;-77
2021/09/15 07:33:04;;;;;;;11.75;2.78;;;;;;;20.50;36.45;98202.75;5019417;28;20044;-77
2021/09/15 07:35:30;;;;;;;7.10;3.25;;;;;;;20.56;37.33;98204.59;5052419;28;20059;-76
2021/09/15 07:37:57;;;;;;;8.50;3.50;;;;;;;20.47;38.15;98216.72;5035651;28;20036;-78
2021/09/15 07:40:23;;;;;;;10.80;3.10;;;;;;;20.51;38.91;98209.84;5052502;28;20041;-78
2021/09/15 07:42:49;;;;;;;7.22;3.13;;;;;;;20.38;39.78;98196.28;5053041;28;20047;-77
2021/09/15 07:45:15;;;;;;;9.13;2.90;;;;;;;20.52;40.49;98205.25;5035702;28;20060;-77
2021/09/15 07:47:41;;;;;;;10.05;2.53;;;;;;;20.53;40.23;98194.16;5019207;28;20416;-77
2021/09/15 07:50:08;;;;;;;8.60;2.90;;;;;;;20.38;41.39;98207.13;5035664;28;20040;-78
2021/09/15 07:52:34;;;;;;;10.13;3.05;;;;;;;20.16;42.43;98208.44;5002473;28;20408;-80
2021/09/15 07:55:01;;;;;;;6.47;3.25;;;;;;;19.93;43.30;98217.84;5036404;28;20048;-79
2021/09/15 07:57:27;;;;;;;5.28;2.90;;;;;;;19.76;43.56;98214.75;5052040;28;20045;-78
2021/09/15 07:59:53;;;;;;;8.05;3.33;;;;;;;19.91;43.58;98211.00;5051661;28;20060;-77
2021/09/15 08:02:19;;;;;;;7.00;3.22;;;;;;;20.05;43.72;98208.06;5051781;28;20143;-78
2021/09/15 08:04:45;;;;;;;6.30;3.33;;;;;;;20.20;43.99;98215.09;5068414;28;20488;-77
2021/09/15 08:07:11;;;;;;;5.50;2.47;;;;;;;19.97;45.01;98202.00;5036425;28;20040;-77
2021/09/15 08:09:37;;;;;;;8.32;2.80;;;;;;;19.90;45.32;98196.59;5052933;28;20076;-78
2021/09/15 08:12:03;;;;;;;13.70;3.88;;;;;;;19.90;45.83;98207.44;5035679;28;20365;-77
2021/09/15 08:14:35;;;;;;;5.95;2.53;;;;;;;19.77;47.03;98223.72;5035454;28;20047;-79
2021/09/15 08:17:01;;;;;;;8.80;3.20;;;;;;;19.84;47.51;98205.56;5052379;28;20049;-77
2021/09/15 08:19:27;;;;;;;6.80;3.30;;;;;;;19.92;47.11;98194.50;5068644;28;20123;-78
2021/09/15 08:21:54;;;;;;;7.88;3.40;;;;;;;20.04;46.81;98203.66;5034807;28;20147;-78
2021/09/15 08:24:19;;;;;;;9.57;3.22;;;;;;;20.08;47.01;98196.78;5051394;28;20055;-79
2021/09/15 08:26:45;;;;;;;10.05;3.17;;;;;;;19.98;46.79;98192.84;5052687;28;20049;-77
2021/09/15 08:29:12;;;;;;;7.72;3.40;;;;;;;20.17;46.67;98194.66;5034738;28;20114;-78
2021/09/15 08:31:38;;;;;;;8.88;3.40;;;;;;;20.14;46.93;98198.63;5051282;28;20044;-77
2021/09/15 08:34:04;;;;;;;3.85;2.72;;;;;;;19.98;47.00;98192.84;5051992;28;20125;-77
2021/09/15 08:36:29;;;;;;;5.90;3.30;;;;;;;20.23;46.33;98187.53;5051483;28;20124;-76
2021/09/15 08:38:56;;;;;;;9.38;3.50;;;;;;;20.36;46.00;98188.34;5034403;28;20041;-77
2021/09/15 08:41:21;;;;;;;6.75;3.13;;;;;;;20.45;45.61;98175.38;5051193;28;20036;-78
2021/09/15 08:43:47;;;;;;;6.72;3.03;;;;;;;20.53;45.06;98172.44;5034307;28;20053;-76
2021/09/15 08:46:17;;;;;;;9.13;3.65;;;;;;;20.70;44.46;98177.41;5051311;28;20095;-78
2021/09/15 08:48:44;;;;;;;8.15;3.05;;;;;;;20.74;43.92;98181.34;5051348;28;20052;-78
2021/09/15 08:51:13;;;;;;;9.13;3.10;;;;;;;20.68;43.53;98168.63;5034631;28;20530;-78
2021/09/15 08:53:40;;;;;;;8.82;3.22;;;;;;;20.57;43.41;98181.84;5051021;28;20443;-78
2021/09/15 08:56:06;;;;;;;6.93;2.95;;;;;;;20.48;43.69;98174.94;5052237;28;20084;-77
2021/09/15 08:58:33;;;;;;;3.92;2.65;;;;;;;20.37;43.61;98172.91;5051074;28;20497;-77
2021/09/15 09:01:34;;;;;;;6.63;2.85;;;;;;;20.23;44.63;98179.41;5051015;28;20040;-77
2021/09/15 09:04:02;;;;;;;3.65;2.92;;;;;;;20.30;44.25;98170.19;4990758;28;20138;-77
2021/09/15 09:06:33;;;;;;;7.23;3.10;;;;;;;20.40;44.55;98171.66;5020521;28;20574;-76
2021/09/15 09:09:01;;;;;;;11.43;3.65;;;;;;;20.48;44.67;98169.50;5050990;28;20068;-77
2021/09/15 09:11:33;;;;;;;8.05;3.33;;;;;;;20.34;45.57;98162.47;5017794;28;20052;-78
2021/09/15 09:14:07;;;;;;;5.65;3.40;;;;;;;20.31;45.70;98157.47;5050953;28;20419;-77
2021/09/15 09:16:44;;;;;;;12.50;3.80;;;;;;;20.09;46.29;98160.47;5051162;28;20056;-77
2021/09/15 09:19:18;;;;;;;6.65;3.58;;;;;;;20.04;46.44;98162.97;5035068;28;20044;-78
2021/09/15 09:21:51;;;;;;;10.50;3.38;;;;;;;20.00;46.45;98140.03;5051958;28;20047;-77
2021/09/15 09:24:21;;;;;;;5.55;3.70;;;;;;;20.25;46.51;98150.19;5050808;28;20554;-78
2021/09/15 09:26:57;;;;;;;7.00;3.30;;;;;;;20.49;45.95;98144.06;5050545;28;20033;-78
2021/09/15 09:29:32;;;;;;;8.80;3.30;;;;;;;20.62;45.38;98145.91;5019787;28;20045;-78
2021/09/15 09:32:08;;;;;;;7.30;3.20;;;;;;;20.66;45.07;98127.28;5050630;28;20495;-78
2021/09/15 09:34:42;;;;;;;6.97;3.90;;;;;;;20.67;45.10;98128.94;5050954;28;20051;-78
2021/09/15 09:37:16;;;;;;;8.15;3.92;;;;;;;20.92;44.84;98134.47;5067867;28;20127;-78
2021/09/15 09:39:43;;;;;;;5.82;3.33;;;;;;;20.97;45.01;98142.78;5067328;28;20131;-77
2021/09/15 09:42:23;;;;;;;9.65;3.40;;;;;;;21.04;45.17;98130.81;5017686;28;20065;-78
2021/09/15 09:44:52;;;;;;;7.97;3.53;;;;;;;21.27;44.89;98137.53;5033939;28;20063;-78
2021/09/15 09:47:19;;;;;;;13.20;4.57;;;;;;;21.21;45.31;98135.69;5050761;28;20045;-77
2021/09/15 09:50:03;;;;;;;20.88;4.13;;;;;;;21.12;45.67;98134.31;5055540;28;20045;-80
2021/09/15 09:53:00;;;;;;;7.72;4.22;;;;;;;21.28;45.79;98147.34;5057558;28;20098;-78
2021/09/15 09:55:30;;;;;;;9.57;3.92;;;;;;;21.27;45.95;98153.84;5022881;28;20048;-79
2021/09/15 09:57:56;;;;;;;10.25;3.70;;;;;;;21.16;46.57;98165.44;5075170;28;20090;-74
2021/09/15 10:00:23;;;;;;;7.85;3.90;;;;;;;20.91;47.01;98144.50;5057504;28;20040;-77
2021/09/15 10:02:49;;;;;;;12.30;3.80;;;;;;;21.04;47.29;98138.97;5074184;28;20404;-78
2021/09/15 10:05:16;;;;;;;7.18;3.33;;;;;;;21.08;47.22;98144.78;5074023;28;20056;-77
2021/09/15 10:07:42;;;;;;;10.05;3.70;;;;;;;21.17;47.15;98139.91;5058453;28;20109;-77
2021/09/15 10:10:12;;;;;;;11.27;3.83;;;;;;;21.17;47.16;98129.88;5058020;28;20467;-77
2021/09/15 10:12:38;;;;;;;10.30;4.15;;;;;;;21.32;46.75;98133.09;5038673;28;20128;-77
2021/09/15 10:15:07;;;;;;;10.05;4.50;;;;;;;21.25;46.96;98126.03;5071278;28;20094;-77
2021/09/15 10:17:33;;;;;;;6.50;3.70;;;;;;;21.23;46.86;98136.31;5037888;28;20067;-79
2021/09/15 10:19:59;;;;;;;10.13;3.72;;;;;;;21.20;46.72;98128.59;5038350;28;20064;-77
2021/09/15 10:22:34;;;;;;;4.15;3.53;;;;;;;21.41;46.51;98141.03;5037965;28;20051;-78
2021/09/15 10:25:01;;;;;;;9.80;3.70;;;;;;;21.52;46.27;98138.44;5019659;28;20098;-76
2021/09/15 10:27:29;;;;;;;7.75;3.53;;;;;;;21.68;45.88;98114.44;5040851;28;20047;-76
2021/09/15 10:30:05;;;;;;;8.20;3.03;;;;;;;21.78;45.51;98120.19;5057402;28;20046;-78
2021/09/15 10:32:36;;;;;;;10.75;4.05;;;;;;;22.15;45.16;98120.22;5055574;28;20041;-76
2021/09/15 10:35:07;;;;;;;8.70;4.00;;;;;;;22.31;44.81;98125.09;5053666;28;20049;-76
2021/09/15 10:37:33;;;;;;;9.77;3.80;;;;;;;22.14;44.84;98118.59;5036411;28;20099;-77
2021/09/15 10:40:11;;;;;;;7.22;3.50;;;;;;;22.14;44.93;98124.84;5054605;28;20072;-79
2021/09/15 10:42:38;;;;;;;7.78;3.33;;;;;;;22.46;44.02;98130.97;5036357;28;20132;-77
2021/09/15 10:45:13;;;;;;;8.00;3.58;;;;;;;22.29;44.18;98121.75;5035771;28;20512;-76
2021/09/15 10:47:43;;;;;;;4.22;3.30;;;;;;;22.27;44.34;98126.59;5019779;28;20068;-79
2021/09/15 10:50:10;;;;;;;10.05;4.20;;;;;;;22.16;44.76;98117.31;5020412;28;20056;-75
2021/09/15 10:52:41;;;;;;;6.78;3.63;;;;;;;22.11;44.69;98113.56;5002959;28;20045;-76
2021/09/15 10:55:17;;;;;;;15.57;3.97;;;;;;;21.83;44.81;98113.00;5036362;28;20045;-76
2021/09/15 10:57:45;;;;;;;7.10;3.80;;;;;;;21.82;45.41;98108.63;5036523;28;20084;-74
2021/09/15 11:00:21;;;;;;;12.45;3.80;;;;;;;21.55;45.55;98097.19;5053057;28;20121;-76
2021/09/15 11:02:51;;;;;;;5.63;3.47;;;;;;;21.53;46.12;98088.41;5053871;28;20110;-77
2021/09/15 11:05:26;;;;;;;5.07;3.53;;;;;;;21.54;46.08;98089.25;5020312;28;20090;-76
2021/09/15 11:07:53;;;;;;;8.40;3.83;;;;;;;21.69;45.47;98075.28;5035227;28;20415;-76
2021/09/15 11:10:34;;;;;;;6.40;3.58;;;;;;;21.95;45.22;98087.78;5052509;28;20037;-77
2021/09/15 11:13:01;;;;;;;9.65;3.80;;;;;;;22.05;44.76;98086.19;5053092;28;20120;-76
2021/09/15 11:15:31;;;;;;;5.20;3.78;;;;;;;21.89;44.96;98070.50;5019500;28;20055;-76
2021/09/15 11:17:57;;;;;;;11.07;3.92;;;;;;;21.90;45.02;98074.88;5054858;28;20032;-77
2021/09/15 11:20:24;;;;;;;8.15;3.50;;;;;;;21.81;45.36;98070.75;5027858;28;20043;-78
2021/09/15 11:22:51;;;;;;;9.85;3.40;;;;;;;21.89;45.26;98066.91;5019096;28;20040;-76
2021/09/15 11:25:18;;;;;;;7.85;3.70;;;;;;;21.85;45.65;98071.16;5018948;28;20437;-81
2021/09/15 11:28:06;;;;;;;12.95;4.15;;;;;;;21.77;45.61;98064.94;5052266;28;20049;-78
2021/09/15 11:30:32;;;;;;;10.48;3.90;;;;;;;21.76;45.56;98060.56;5035445;28;20056;-77
2021/09/15 11:32:58;;;;;;;11.48;3.58;;;;;;;21.65;46.18;98068.66;5035674;28;20048;-77
2021/09/15 11:35:24;;;;;;;6.88;4.00;;;;;;;21.58;46.11;98049.66;5019614;28;20041;-76
2021/09/15 11:37:50;;;;;;;8.85;3.40;;;;;;;21.38;46.49;98066.19;5034739;28;20036;-75
2021/09/15 11:40:16;;;;;;;8.32;3.83;;;;;;;21.37;46.95;98064.53;5051931;28;20116;-75
2021/09/15 11:42:42;;;;;;;10.73;3.90;;;;;;;21.33;46.63;98058.72;5035059;28;20041;-76
2021/09/15 11:45:14;;;;;;;18.20;3.80;;;;;;;21.28;47.32;98054.94;5034482;28;20147;-79
2021/09/15 11:47:45;;;;;;;12.68;3.63;;;;;;;21.41;46.91;98049.44;5053238;28;20048;-74
2021/09/15 11:50:14;;;;;;;8.95;4.10;;;;;;;21.54;46.86;98043.03;5019086;28;20049;-75